sensor_id;sensor_type;location;lat;lon;timestamp;P1;durP1;ratioP1;P2;durP2;ratioP2
34296;SDS011;20564;42.902;25.336;2023-03-08T00:02:10;6.30;;;2.30;;
34296;SDS011;20564;42.902;25.336;2023-03-08T00:04:41;4.93;;;1.85;;
34296;SDS011;20564;42.902;25.336;2023-03-08T00:07:16;7.25;;;2.13;;
34296;SDS011;20564;42.902;25.336;2023-03-08T00:09:44;5.38;;;1.77;;
34296;SDS011;20564;42.902;25.336;2023-03-08T00:12:15;4.47;;;1.83;;
34296;SDS011;20564;42.902;25.336;2023-03-08T00:14:45;6.93;;;2.20;;
34296;SDS011;20564;42.902;25.336;2023-03-08T00:17:18;5.18;;;1.75;;
34296;SDS011;20564;42.902;25.336;2023-03-08T00:19:49;5.63;;;1.88;;
34296;SDS011;20564;42.902;25.336;2023-03-08T00:22:26;5.28;;;2.25;;
34296;SDS011;20564;42.902;25.336;2023-03-08T00:24:54;6.55;;;2.72;;
34296;SDS011;20564;42.902;25.336;2023-03-08T00:27:24;5.50;;;1.88;;
34296;SDS011;20564;42.902;25.336;2023-03-08T00:29:53;6.97;;;1.95;;
34296;SDS011;20564;42.902;25.336;2023-03-08T00:32:24;3.00;;;1.85;;
34296;SDS011;20564;42.902;25.336;2023-03-08T00:34:58;5.70;;;2.40;;
34296;SDS011;20564;42.902;25.336;2023-03-08T00:37:26;4.50;;;1.45;;
34296;SDS011;20564;42.902;25.336;2023-03-08T00:40:01;7.88;;;1.88;;
34296;SDS011;20564;42.902;25.336;2023-03-08T00:42:38;8.02;;;2.10;;
34296;SDS011;20564;42.902;25.336;2023-03-08T00:45:11;6.45;;;2.42;;
34296;SDS011;20564;42.902;25.336;2023-03-08T00:47:43;6.30;;;1.65;;
34296;SDS011;20564;42.902;25.336;2023-03-08T00:50:10;4.25;;;1.52;;
34296;SDS011;20564;42.902;25.336;2023-03-08T00:52:39;3.40;;;1.65;;
34296;SDS011;20564;42.902;25.336;2023-03-08T00:55:06;8.73;;;1.77;;
34296;SDS011;20564;42.902;25.336;2023-03-08T00:57:33;6.57;;;1.90;;
34296;SDS011;20564;42.902;25.336;2023-03-08T01:00:00;6.00;;;2.45;;
34296;SDS011;20564;42.902;25.336;2023-03-08T01:02:29;4.13;;;2.10;;
34296;SDS011;20564;42.902;25.336;2023-03-08T01:04:56;4.57;;;1.77;;
34296;SDS011;20564;42.902;25.336;2023-03-08T01:07:27;5.93;;;2.00;;
34296;SDS011;20564;42.902;25.336;2023-03-08T01:09:54;7.15;;;1.95;;
34296;SDS011;20564;42.902;25.336;2023-03-08T01:12:22;7.45;;;2.15;;
34296;SDS011;20564;42.902;25.336;2023-03-08T01:14:51;4.97;;;1.85;;
34296;SDS011;20564;42.902;25.336;2023-03-08T01:17:19;7.45;;;1.95;;
34296;SDS011;20564;42.902;25.336;2023-03-08T01:19:46;7.45;;;1.55;;
34296;SDS011;20564;42.902;25.336;2023-03-08T01:22:13;6.28;;;2.22;;
34296;SDS011;20564;42.902;25.336;2023-03-08T01:24:44;5.43;;;1.83;;
34296;SDS011;20564;42.902;25.336;2023-03-08T01:27:13;4.25;;;1.90;;
34296;SDS011;20564;42.902;25.336;2023-03-08T01:29:42;2.67;;;1.42;;
34296;SDS011;20564;42.902;25.336;2023-03-08T01:32:10;6.13;;;1.75;;
34296;SDS011;20564;42.902;25.336;2023-03-08T01:34:37;7.15;;;2.88;;
34296;SDS011;20564;42.902;25.336;2023-03-08T01:37:06;3.60;;;1.55;;
34296;SDS011;20564;42.902;25.336;2023-03-08T01:39:36;3.83;;;1.23;;
34296;SDS011;20564;42.902;25.336;2023-03-08T01:42:07;3.28;;;1.50;;
34296;SDS011;20564;42.902;25.336;2023-03-08T01:47:57;3.88;;;1.27;;
34296;SDS011;20564;42.902;25.336;2023-03-08T01:50:31;2.88;;;1.38;;
34296;SDS011;20564;42.902;25.336;2023-03-08T01:53:06;3.58;;;1.33;;
34296;SDS011;20564;42.902;25.336;2023-03-08T01:55:54;3.13;;;1.17;;
34296;SDS011;20564;42.902;25.336;2023-03-08T01:58:22;5.57;;;2.17;;
34296;SDS011;20564;42.902;25.336;2023-03-08T02:00:56;1.90;;;0.98;;
34296;SDS011;20564;42.902;25.336;2023-03-08T02:03:28;4.97;;;1.17;;
34296;SDS011;20564;42.902;25.336;2023-03-08T02:05:57;3.75;;;1.65;;
34296;SDS011;20564;42.902;25.336;2023-03-08T02:08:30;5.55;;;1.40;;
34296;SDS011;20564;42.902;25.336;2023-03-08T02:11:32;2.47;;;0.82;;
34296;SDS011;20564;42.902;25.336;2023-03-08T02:14:45;3.20;;;0.80;;
34296;SDS011;20564;42.902;25.336;2023-03-08T02:17:11;1.63;;;0.88;;
34296;SDS011;20564;42.902;25.336;2023-03-08T02:20:02;2.78;;;0.90;;
34296;SDS011;20564;42.902;25.336;2023-03-08T02:22:54;1.80;;;0.88;;
34296;SDS011;20564;42.902;25.336;2023-03-08T02:25:59;3.20;;;1.15;;
34296;SDS011;20564;42.902;25.336;2023-03-08T02:28:31;2.38;;;0.82;;
34296;SDS011;20564;42.902;25.336;2023-03-08T02:31:03;3.55;;;1.65;;
34296;SDS011;20564;42.902;25.336;2023-03-08T02:33:35;3.40;;;1.58;;
34296;SDS011;20564;42.902;25.336;2023-03-08T02:36:26;3.38;;;1.35;;
34296;SDS011;20564;42.902;25.336;2023-03-08T02:39:00;4.10;;;1.17;;
34296;SDS011;20564;42.902;25.336;2023-03-08T02:41:37;3.17;;;1.23;;
34296;SDS011;20564;42.902;25.336;2023-03-08T02:44:37;2.70;;;0.82;;
34296;SDS011;20564;42.902;25.336;2023-03-08T02:47:07;3.30;;;1.00;;
34296;SDS011;20564;42.902;25.336;2023-03-08T02:49:36;2.83;;;1.30;;
34296;SDS011;20564;42.902;25.336;2023-03-08T02:52:07;2.88;;;0.98;;
34296;SDS011;20564;42.902;25.336;2023-03-08T02:54:38;2.58;;;1.23;;
34296;SDS011;20564;42.902;25.336;2023-03-08T02:57:32;3.15;;;1.38;;
34296;SDS011;20564;42.902;25.336;2023-03-08T03:00:17;2.83;;;0.98;;
34296;SDS011;20564;42.902;25.336;2023-03-08T03:02:50;4.30;;;1.02;;
34296;SDS011;20564;42.902;25.336;2023-03-08T03:05:21;1.42;;;0.93;;
34296;SDS011;20564;42.902;25.336;2023-03-08T03:08:04;3.40;;;1.23;;
34296;SDS011;20564;42.902;25.336;2023-03-08T03:10:37;2.92;;;0.85;;
34296;SDS011;20564;42.902;25.336;2023-03-08T03:13:16;2.42;;;0.70;;
34296;SDS011;20564;42.902;25.336;2023-03-08T03:15:53;2.83;;;1.02;;
34296;SDS011;20564;42.902;25.336;2023-03-08T03:18:42;2.38;;;0.85;;
34296;SDS011;20564;42.902;25.336;2023-03-08T03:21:14;3.78;;;1.13;;
34296;SDS011;20564;42.902;25.336;2023-03-08T03:27:35;2.72;;;0.60;;
34296;SDS011;20564;42.902;25.336;2023-03-08T03:36:33;3.75;;;1.95;;
34296;SDS011;20564;42.902;25.336;2023-03-08T03:39:15;2.45;;;1.08;;
34296;SDS011;20564;42.902;25.336;2023-03-08T03:41:44;2.80;;;1.00;;
34296;SDS011;20564;42.902;25.336;2023-03-08T03:44:22;2.33;;;1.02;;
34296;SDS011;20564;42.902;25.336;2023-03-08T03:47:05;4.45;;;1.17;;
34296;SDS011;20564;42.902;25.336;2023-03-08T03:49:35;2.85;;;1.00;;
34296;SDS011;20564;42.902;25.336;2023-03-08T03:52:02;3.70;;;1.23;;
34296;SDS011;20564;42.902;25.336;2023-03-08T03:54:30;1.55;;;0.80;;
34296;SDS011;20564;42.902;25.336;2023-03-08T03:57:00;1.98;;;0.93;;
34296;SDS011;20564;42.902;25.336;2023-03-08T03:59:31;2.10;;;0.80;;
34296;SDS011;20564;42.902;25.336;2023-03-08T04:02:21;1.77;;;0.80;;
34296;SDS011;20564;42.902;25.336;2023-03-08T04:05:09;4.25;;;1.00;;
34296;SDS011;20564;42.902;25.336;2023-03-08T04:11:44;2.65;;;1.10;;
34296;SDS011;20564;42.902;25.336;2023-03-08T04:15:08;2.35;;;0.93;;
34296;SDS011;20564;42.902;25.336;2023-03-08T04:17:50;3.30;;;0.88;;
34296;SDS011;20564;42.902;25.336;2023-03-08T04:20:40;1.95;;;0.80;;
34296;SDS011;20564;42.902;25.336;2023-03-08T04:23:07;2.15;;;1.25;;
34296;SDS011;20564;42.902;25.336;2023-03-08T04:25:34;2.40;;;0.50;;
34296;SDS011;20564;42.902;25.336;2023-03-08T04:28:01;2.83;;;1.23;;
34296;SDS011;20564;42.902;25.336;2023-03-08T04:30:29;3.10;;;1.27;;
34296;SDS011;20564;42.902;25.336;2023-03-08T04:33:01;1.77;;;0.70;;
34296;SDS011;20564;42.902;25.336;2023-03-08T04:35:28;2.63;;;0.65;;
34296;SDS011;20564;42.902;25.336;2023-03-08T04:38:18;2.10;;;0.85;;
34296;SDS011;20564;42.902;25.336;2023-03-08T04:40:49;3.97;;;1.73;;
34296;SDS011;20564;42.902;25.336;2023-03-08T04:43:36;4.80;;;1.30;;
34296;SDS011;20564;42.902;25.336;2023-03-08T04:46:05;3.75;;;1.20;;
34296;SDS011;20564;42.902;25.336;2023-03-08T04:48:33;3.38;;;1.40;;
34296;SDS011;20564;42.902;25.336;2023-03-08T04:51:01;4.47;;;1.88;;
34296;SDS011;20564;42.902;25.336;2023-03-08T04:53:30;4.60;;;1.40;;
34296;SDS011;20564;42.902;25.336;2023-03-08T04:56:04;4.75;;;1.33;;
34296;SDS011;20564;42.902;25.336;2023-03-08T05:00:59;2.40;;;1.08;;
34296;SDS011;20564;42.902;25.336;2023-03-08T05:03:37;3.78;;;1.63;;
34296;SDS011;20564;42.902;25.336;2023-03-08T05:06:05;5.07;;;1.75;;
34296;SDS011;20564;42.902;25.336;2023-03-08T05:08:34;3.10;;;1.70;;
34296;SDS011;20564;42.902;25.336;2023-03-08T05:11:03;10.43;;;2.00;;
34296;SDS011;20564;42.902;25.336;2023-03-08T05:13:34;6.20;;;2.05;;
34296;SDS011;20564;42.902;25.336;2023-03-08T05:16:06;5.05;;;2.00;;
34296;SDS011;20564;42.902;25.336;2023-03-08T05:18:36;9.23;;;1.85;;
34296;SDS011;20564;42.902;25.336;2023-03-08T05:21:10;3.97;;;1.60;;
34296;SDS011;20564;42.902;25.336;2023-03-08T05:23:50;5.57;;;1.75;;
34296;SDS011;20564;42.902;25.336;2023-03-08T05:26:18;3.20;;;1.48;;
34296;SDS011;20564;42.902;25.336;2023-03-08T05:28:45;4.57;;;1.33;;
34296;SDS011;20564;42.902;25.336;2023-03-08T05:31:19;3.57;;;1.40;;
34296;SDS011;20564;42.902;25.336;2023-03-08T05:33:51;3.08;;;1.33;;
34296;SDS011;20564;42.902;25.336;2023-03-08T05:36:19;4.28;;;1.67;;
34296;SDS011;20564;42.902;25.336;2023-03-08T05:38:47;5.05;;;1.60;;
34296;SDS011;20564;42.902;25.336;2023-03-08T05:41:22;2.67;;;1.33;;
34296;SDS011;20564;42.902;25.336;2023-03-08T05:43:49;4.05;;;1.42;;
34296;SDS011;20564;42.902;25.336;2023-03-08T05:46:17;4.38;;;1.55;;
34296;SDS011;20564;42.902;25.336;2023-03-08T05:48:45;3.95;;;1.23;;
34296;SDS011;20564;42.902;25.336;2023-03-08T05:51:13;2.92;;;1.08;;
34296;SDS011;20564;42.902;25.336;2023-03-08T05:53:42;3.08;;;1.25;;
34296;SDS011;20564;42.902;25.336;2023-03-08T05:56:10;3.85;;;1.20;;
34296;SDS011;20564;42.902;25.336;2023-03-08T05:58:42;14.13;;;1.50;;
34296;SDS011;20564;42.902;25.336;2023-03-08T06:01:16;4.38;;;1.50;;
34296;SDS011;20564;42.902;25.336;2023-03-08T06:03:55;3.08;;;1.70;;
34296;SDS011;20564;42.902;25.336;2023-03-08T06:06:29;4.80;;;1.95;;
34296;SDS011;20564;42.902;25.336;2023-03-08T06:08:56;3.47;;;1.05;;
34296;SDS011;20564;42.902;25.336;2023-03-08T06:11:23;4.65;;;1.60;;
34296;SDS011;20564;42.902;25.336;2023-03-08T06:13:51;5.88;;;2.03;;
34296;SDS011;20564;42.902;25.336;2023-03-08T06:16:18;5.55;;;2.10;;
34296;SDS011;20564;42.902;25.336;2023-03-08T06:18:46;6.57;;;2.90;;
34296;SDS011;20564;42.902;25.336;2023-03-08T06:21:17;8.10;;;2.85;;
34296;SDS011;20564;42.902;25.336;2023-03-08T06:23:46;6.50;;;3.03;;
34296;SDS011;20564;42.902;25.336;2023-03-08T06:26:13;10.13;;;3.80;;
34296;SDS011;20564;42.902;25.336;2023-03-08T06:28:42;8.32;;;2.75;;
34296;SDS011;20564;42.902;25.336;2023-03-08T06:31:16;6.55;;;3.53;;
34296;SDS011;20564;42.902;25.336;2023-03-08T06:33:44;9.50;;;3.28;;
34296;SDS011;20564;42.902;25.336;2023-03-08T06:36:12;10.20;;;4.20;;
34296;SDS011;20564;42.902;25.336;2023-03-08T06:38:41;15.30;;;4.65;;
34296;SDS011;20564;42.902;25.336;2023-03-08T06:41:13;13.40;;;4.50;;
34296;SDS011;20564;42.902;25.336;2023-03-08T06:43:42;11.23;;;4.47;;
34296;SDS011;20564;42.902;25.336;2023-03-08T06:46:10;13.05;;;5.40;;
34296;SDS011;20564;42.902;25.336;2023-03-08T06:48:39;12.52;;;4.25;;
34296;SDS011;20564;42.902;25.336;2023-03-08T06:51:27;15.60;;;4.93;;
34296;SDS011;20564;42.902;25.336;2023-03-08T06:53:54;13.98;;;4.80;;
34296;SDS011;20564;42.902;25.336;2023-03-08T06:56:23;22.70;;;4.63;;
34296;SDS011;20564;42.902;25.336;2023-03-08T06:58:58;13.25;;;3.95;;
34296;SDS011;20564;42.902;25.336;2023-03-08T07:03:53;21.47;;;10.43;;
34296;SDS011;20564;42.902;25.336;2023-03-08T07:06:20;14.82;;;6.25;;
34296;SDS011;20564;42.902;25.336;2023-03-08T07:08:50;18.63;;;5.65;;
34296;SDS011;20564;42.902;25.336;2023-03-08T07:11:17;15.35;;;4.75;;
34296;SDS011;20564;42.902;25.336;2023-03-08T07:13:44;18.05;;;5.50;;
34296;SDS011;20564;42.902;25.336;2023-03-08T07:16:11;8.38;;;3.15;;
34296;SDS011;20564;42.902;25.336;2023-03-08T07:18:39;9.80;;;3.63;;
34296;SDS011;20564;42.902;25.336;2023-03-08T07:21:07;9.70;;;3.33;;
34296;SDS011;20564;42.902;25.336;2023-03-08T07:23:35;9.85;;;2.97;;
34296;SDS011;20564;42.902;25.336;2023-03-08T07:26:04;15.95;;;4.70;;
34296;SDS011;20564;42.902;25.336;2023-03-08T07:28:31;16.27;;;4.55;;
34296;SDS011;20564;42.902;25.336;2023-03-08T07:30:59;12.45;;;3.97;;
34296;SDS011;20564;42.902;25.336;2023-03-08T07:33:26;9.60;;;2.90;;
34296;SDS011;20564;42.902;25.336;2023-03-08T07:35:53;9.18;;;2.75;;
34296;SDS011;20564;42.902;25.336;2023-03-08T07:38:20;14.13;;;4.07;;
34296;SDS011;20564;42.902;25.336;2023-03-08T07:40:54;14.52;;;3.63;;
34296;SDS011;20564;42.902;25.336;2023-03-08T07:43:24;14.05;;;3.70;;
34296;SDS011;20564;42.902;25.336;2023-03-08T07:45:57;16.40;;;4.55;;
34296;SDS011;20564;42.902;25.336;2023-03-08T07:48:28;17.20;;;5.30;;
34296;SDS011;20564;42.902;25.336;2023-03-08T07:54:24;16.38;;;3.85;;
34296;SDS011;20564;42.902;25.336;2023-03-08T07:56:52;13.38;;;4.03;;
34296;SDS011;20564;42.902;25.336;2023-03-08T08:00:20;9.98;;;3.75;;
34296;SDS011;20564;42.902;25.336;2023-03-08T08:02:47;6.90;;;2.67;;
34296;SDS011;20564;42.902;25.336;2023-03-08T08:05:14;12.32;;;3.70;;
34296;SDS011;20564;42.902;25.336;2023-03-08T08:07:41;13.27;;;3.25;;
34296;SDS011;20564;42.902;25.336;2023-03-08T08:10:08;16.38;;;3.58;;
34296;SDS011;20564;42.902;25.336;2023-03-08T08:12:36;20.02;;;4.32;;
34296;SDS011;20564;42.902;25.336;2023-03-08T08:15:04;8.98;;;3.67;;
34296;SDS011;20564;42.902;25.336;2023-03-08T08:17:31;13.13;;;3.35;;
34296;SDS011;20564;42.902;25.336;2023-03-08T08:20:00;11.68;;;3.70;;
34296;SDS011;20564;42.902;25.336;2023-03-08T08:22:33;5.70;;;2.22;;
34296;SDS011;20564;42.902;25.336;2023-03-08T08:25:05;10.27;;;3.33;;
34296;SDS011;20564;42.902;25.336;2023-03-08T08:27:35;14.13;;;3.67;;
34296;SDS011;20564;42.902;25.336;2023-03-08T08:30:03;14.20;;;3.10;;
34296;SDS011;20564;42.902;25.336;2023-03-08T08:32:34;7.60;;;1.80;;
34296;SDS011;20564;42.902;25.336;2023-03-08T08:35:03;6.65;;;2.40;;
34296;SDS011;20564;42.902;25.336;2023-03-08T08:37:31;7.03;;;1.58;;
34296;SDS011;20564;42.902;25.336;2023-03-08T08:42:32;2.35;;;0.88;;
34296;SDS011;20564;42.902;25.336;2023-03-08T08:45:00;1.70;;;0.80;;
34296;SDS011;20564;42.902;25.336;2023-03-08T08:47:27;2.03;;;0.85;;
34296;SDS011;20564;42.902;25.336;2023-03-08T08:49:59;4.32;;;1.60;;
34296;SDS011;20564;42.902;25.336;2023-03-08T08:52:26;2.23;;;0.80;;
34296;SDS011;20564;42.902;25.336;2023-03-08T08:54:53;3.78;;;1.00;;
34296;SDS011;20564;42.902;25.336;2023-03-08T08:57:22;2.92;;;1.30;;
34296;SDS011;20564;42.902;25.336;2023-03-08T08:59:54;3.38;;;0.98;;
34296;SDS011;20564;42.902;25.336;2023-03-08T09:02:22;2.00;;;0.80;;
34296;SDS011;20564;42.902;25.336;2023-03-08T09:08:22;1.67;;;0.80;;
34296;SDS011;20564;42.902;25.336;2023-03-08T09:10:51;3.65;;;0.77;;
34296;SDS011;20564;42.902;25.336;2023-03-08T09:13:18;1.15;;;0.80;;
34296;SDS011;20564;42.902;25.336;2023-03-08T09:16:42;1.88;;;0.70;;
34296;SDS011;20564;42.902;25.336;2023-03-08T09:19:16;1.80;;;0.75;;
34296;SDS011;20564;42.902;25.336;2023-03-08T09:21:44;1.85;;;0.80;;
34296;SDS011;20564;42.902;25.336;2023-03-08T09:24:26;1.95;;;0.77;;
34296;SDS011;20564;42.902;25.336;2023-03-08T09:26:53;3.53;;;1.02;;
34296;SDS011;20564;42.902;25.336;2023-03-08T09:29:21;3.22;;;1.17;;
34296;SDS011;20564;42.902;25.336;2023-03-08T09:31:57;1.63;;;1.00;;
34296;SDS011;20564;42.902;25.336;2023-03-08T09:34:25;1.88;;;0.73;;
34296;SDS011;20564;42.902;25.336;2023-03-08T09:36:53;3.80;;;1.10;;
34296;SDS011;20564;42.902;25.336;2023-03-08T09:39:26;1.42;;;0.70;;
34296;SDS011;20564;42.902;25.336;2023-03-08T09:41:56;0.73;;;0.50;;
34296;SDS011;20564;42.902;25.336;2023-03-08T09:49:48;1.30;;;0.50;;
34296;SDS011;20564;42.902;25.336;2023-03-08T09:58:40;1.33;;;0.60;;
34296;SDS011;20564;42.902;25.336;2023-03-08T10:01:37;2.22;;;1.00;;
34296;SDS011;20564;42.902;25.336;2023-03-08T10:10:39;1.63;;;0.57;;
34296;SDS011;20564;42.902;25.336;2023-03-08T10:16:04;2.63;;;1.00;;
34296;SDS011;20564;42.902;25.336;2023-03-08T10:21:11;2.58;;;0.80;;
34296;SDS011;20564;42.902;25.336;2023-03-08T10:23:46;0.85;;;0.57;;
34296;SDS011;20564;42.902;25.336;2023-03-08T10:26:24;2.22;;;0.70;;
34296;SDS011;20564;42.902;25.336;2023-03-08T10:28:55;1.15;;;0.55;;
34296;SDS011;20564;42.902;25.336;2023-03-08T10:31:26;1.87;;;0.90;;
34296;SDS011;20564;42.902;25.336;2023-03-08T10:34:00;2.13;;;0.90;;
34296;SDS011;20564;42.902;25.336;2023-03-08T10:36:45;2.88;;;1.00;;
34296;SDS011;20564;42.902;25.336;2023-03-08T10:39:32;2.83;;;0.90;;
34296;SDS011;20564;42.902;25.336;2023-03-08T10:42:06;5.68;;;1.33;;
34296;SDS011;20564;42.902;25.336;2023-03-08T10:44:46;1.58;;;0.65;;
34296;SDS011;20564;42.902;25.336;2023-03-08T10:52:48;7.20;;;2.72;;
34296;SDS011;20564;42.902;25.336;2023-03-08T10:55:18;8.57;;;2.88;;
34296;SDS011;20564;42.902;25.336;2023-03-08T10:58:01;9.32;;;3.45;;
34296;SDS011;20564;42.902;25.336;2023-03-08T11:00:53;5.85;;;2.78;;
34296;SDS011;20564;42.902;25.336;2023-03-08T11:04:01;4.05;;;1.58;;
34296;SDS011;20564;42.902;25.336;2023-03-08T11:06:39;1.77;;;0.88;;
34296;SDS011;20564;42.902;25.336;2023-03-08T11:09:23;2.45;;;0.82;;
34296;SDS011;20564;42.902;25.336;2023-03-08T11:11:52;2.03;;;0.90;;
34296;SDS011;20564;42.902;25.336;2023-03-08T11:14:23;2.63;;;1.33;;
34296;SDS011;20564;42.902;25.336;2023-03-08T11:19:57;4.70;;;2.10;;
34296;SDS011;20564;42.902;25.336;2023-03-08T11:25:06;8.65;;;2.70;;
34296;SDS011;20564;42.902;25.336;2023-03-08T11:39:04;5.63;;;1.63;;
34296;SDS011;20564;42.902;25.336;2023-03-08T11:41:39;2.65;;;1.00;;
34296;SDS011;20564;42.902;25.336;2023-03-08T11:56:26;4.60;;;1.70;;
34296;SDS011;20564;42.902;25.336;2023-03-08T11:58:59;1.50;;;0.60;;
34296;SDS011;20564;42.902;25.336;2023-03-08T12:02:19;3.30;;;0.93;;
34296;SDS011;20564;42.902;25.336;2023-03-08T12:11:45;1.67;;;0.75;;
34296;SDS011;20564;42.902;25.336;2023-03-08T12:14:51;2.75;;;1.15;;
34296;SDS011;20564;42.902;25.336;2023-03-08T12:17:37;1.77;;;0.75;;
34296;SDS011;20564;42.902;25.336;2023-03-08T12:27:52;3.42;;;1.10;;
34296;SDS011;20564;42.902;25.336;2023-03-08T12:30:43;1.65;;;0.75;;
34296;SDS011;20564;42.902;25.336;2023-03-08T12:33:14;2.92;;;1.10;;
34296;SDS011;20564;42.902;25.336;2023-03-08T12:36:02;6.38;;;1.15;;
34296;SDS011;20564;42.902;25.336;2023-03-08T12:38:37;2.53;;;1.15;;
34296;SDS011;20564;42.902;25.336;2023-03-08T12:41:24;5.88;;;2.80;;
34296;SDS011;20564;42.902;25.336;2023-03-08T12:44:06;4.88;;;1.13;;
34296;SDS011;20564;42.902;25.336;2023-03-08T12:46:54;3.40;;;0.98;;
34296;SDS011;20564;42.902;25.336;2023-03-08T12:49:34;2.70;;;0.60;;
34296;SDS011;20564;42.902;25.336;2023-03-08T12:52:05;3.47;;;0.90;;
34296;SDS011;20564;42.902;25.336;2023-03-08T12:54:55;3.38;;;1.70;;
34296;SDS011;20564;42.902;25.336;2023-03-08T12:57:33;3.35;;;1.05;;
34296;SDS011;20564;42.902;25.336;2023-03-08T13:05:39;1.80;;;1.00;;
34296;SDS011;20564;42.902;25.336;2023-03-08T13:16:54;5.50;;;2.22;;
34296;SDS011;20564;42.902;25.336;2023-03-08T13:19:25;3.13;;;1.23;;
34296;SDS011;20564;42.902;25.336;2023-03-08T13:22:15;3.45;;;1.45;;
34296;SDS011;20564;42.902;25.336;2023-03-08T13:25:08;1.88;;;1.02;;
34296;SDS011;20564;42.902;25.336;2023-03-08T13:28:20;2.38;;;0.60;;
34296;SDS011;20564;42.902;25.336;2023-03-08T13:30:51;6.28;;;2.25;;
34296;SDS011;20564;42.902;25.336;2023-03-08T13:33:32;0.80;;;0.43;;
34296;SDS011;20564;42.902;25.336;2023-03-08T13:36:05;2.30;;;1.10;;
34296;SDS011;20564;42.902;25.336;2023-03-08T13:38:40;2.78;;;0.95;;
34296;SDS011;20564;42.902;25.336;2023-03-08T13:41:07;2.00;;;0.70;;
34296;SDS011;20564;42.902;25.336;2023-03-08T13:43:35;8.63;;;4.60;;
34296;SDS011;20564;42.902;25.336;2023-03-08T13:46:04;3.70;;;1.23;;
34296;SDS011;20564;42.902;25.336;2023-03-08T13:48:36;9.02;;;5.05;;
34296;SDS011;20564;42.902;25.336;2023-03-08T13:51:03;14.23;;;5.93;;
34296;SDS011;20564;42.902;25.336;2023-03-08T13:53:31;10.45;;;3.65;;
34296;SDS011;20564;42.902;25.336;2023-03-08T13:56:01;5.00;;;1.55;;
34296;SDS011;20564;42.902;25.336;2023-03-08T14:01:15;4.85;;;1.73;;
34296;SDS011;20564;42.902;25.336;2023-03-08T14:03:45;9.50;;;3.50;;
34296;SDS011;20564;42.902;25.336;2023-03-08T14:08:50;12.23;;;4.88;;
34296;SDS011;20564;42.902;25.336;2023-03-08T14:11:24;6.88;;;2.40;;
34296;SDS011;20564;42.902;25.336;2023-03-08T14:13:55;11.48;;;4.40;;
34296;SDS011;20564;42.902;25.336;2023-03-08T14:16:36;14.15;;;5.28;;
34296;SDS011;20564;42.902;25.336;2023-03-08T14:19:19;5.25;;;1.77;;
34296;SDS011;20564;42.902;25.336;2023-03-08T14:21:48;1.73;;;0.47;;
34296;SDS011;20564;42.902;25.336;2023-03-08T14:24:19;6.45;;;2.33;;
34296;SDS011;20564;42.902;25.336;2023-03-08T14:29:46;2.60;;;1.27;;
34296;SDS011;20564;42.902;25.336;2023-03-08T14:32:33;2.50;;;1.10;;
34296;SDS011;20564;42.902;25.336;2023-03-08T14:35:05;2.25;;;0.57;;
34296;SDS011;20564;42.902;25.336;2023-03-08T14:37:43;3.15;;;1.52;;
34296;SDS011;20564;42.902;25.336;2023-03-08T14:43:01;4.40;;;1.33;;
34296;SDS011;20564;42.902;25.336;2023-03-08T14:45:49;6.07;;;2.78;;
34296;SDS011;20564;42.902;25.336;2023-03-08T14:48:35;7.20;;;3.60;;
34296;SDS011;20564;42.902;25.336;2023-03-08T14:53:53;4.47;;;2.00;;
34296;SDS011;20564;42.902;25.336;2023-03-08T14:56:34;2.35;;;0.82;;
34296;SDS011;20564;42.902;25.336;2023-03-08T14:59:09;1.50;;;0.63;;
34296;SDS011;20564;42.902;25.336;2023-03-08T15:02:02;1.95;;;0.80;;
34296;SDS011;20564;42.902;25.336;2023-03-08T15:04:40;3.38;;;1.00;;
34296;SDS011;20564;42.902;25.336;2023-03-08T15:07:18;1.27;;;0.68;;
34296;SDS011;20564;42.902;25.336;2023-03-08T15:09:49;2.28;;;0.93;;
34296;SDS011;20564;42.902;25.336;2023-03-08T15:12:20;2.60;;;0.70;;
34296;SDS011;20564;42.902;25.336;2023-03-08T15:14:47;1.85;;;0.60;;
34296;SDS011;20564;42.902;25.336;2023-03-08T15:17:21;1.50;;;0.80;;
34296;SDS011;20564;42.902;25.336;2023-03-08T15:19:52;2.67;;;0.90;;
34296;SDS011;20564;42.902;25.336;2023-03-08T15:22:29;2.63;;;0.93;;
34296;SDS011;20564;42.902;25.336;2023-03-08T15:25:13;2.50;;;0.73;;
34296;SDS011;20564;42.902;25.336;2023-03-08T15:27:48;1.67;;;0.35;;
34296;SDS011;20564;42.902;25.336;2023-03-08T15:30:24;0.95;;;0.40;;
34296;SDS011;20564;42.902;25.336;2023-03-08T15:33:03;1.13;;;0.37;;
34296;SDS011;20564;42.902;25.336;2023-03-08T15:38:01;3.33;;;0.80;;
34296;SDS011;20564;42.902;25.336;2023-03-08T15:40:37;3.42;;;1.23;;
34296;SDS011;20564;42.902;25.336;2023-03-08T15:43:19;0.85;;;0.40;;
34296;SDS011;20564;42.902;25.336;2023-03-08T15:45:50;3.28;;;1.02;;
34296;SDS011;20564;42.902;25.336;2023-03-08T15:48:19;2.67;;;0.85;;
34296;SDS011;20564;42.902;25.336;2023-03-08T15:50:46;3.22;;;1.70;;
34296;SDS011;20564;42.902;25.336;2023-03-08T15:53:14;3.10;;;1.10;;
34296;SDS011;20564;42.902;25.336;2023-03-08T15:56:00;3.25;;;1.10;;
34296;SDS011;20564;42.902;25.336;2023-03-08T15:58:27;30.42;;;11.88;;
34296;SDS011;20564;42.902;25.336;2023-03-08T16:00:58;16.35;;;6.38;;
34296;SDS011;20564;42.902;25.336;2023-03-08T16:03:26;14.50;;;5.53;;
34296;SDS011;20564;42.902;25.336;2023-03-08T16:05:56;9.48;;;3.45;;
34296;SDS011;20564;42.902;25.336;2023-03-08T16:08:27;10.35;;;4.03;;
34296;SDS011;20564;42.902;25.336;2023-03-08T16:10:55;13.68;;;4.78;;
34296;SDS011;20564;42.902;25.336;2023-03-08T16:13:29;8.05;;;2.67;;
34296;SDS011;20564;42.902;25.336;2023-03-08T16:15:59;7.25;;;2.60;;
34296;SDS011;20564;42.902;25.336;2023-03-08T16:18:28;6.45;;;2.42;;
34296;SDS011;20564;42.902;25.336;2023-03-08T16:23:23;10.75;;;4.22;;
34296;SDS011;20564;42.902;25.336;2023-03-08T16:26:02;10.35;;;3.28;;
34296;SDS011;20564;42.902;25.336;2023-03-08T16:28:53;9.05;;;2.45;;
34296;SDS011;20564;42.902;25.336;2023-03-08T16:31:25;4.05;;;1.30;;
34296;SDS011;20564;42.902;25.336;2023-03-08T16:33:54;1.83;;;1.08;;
34296;SDS011;20564;42.902;25.336;2023-03-08T16:36:22;3.03;;;1.10;;
34296;SDS011;20564;42.902;25.336;2023-03-08T16:38:58;3.47;;;1.20;;
34296;SDS011;20564;42.902;25.336;2023-03-08T16:41:56;3.10;;;1.52;;
34296;SDS011;20564;42.902;25.336;2023-03-08T16:44:51;4.78;;;1.35;;
34296;SDS011;20564;42.902;25.336;2023-03-08T16:47:24;6.43;;;2.15;;
34296;SDS011;20564;42.902;25.336;2023-03-08T16:50:38;1.90;;;1.25;;
34296;SDS011;20564;42.902;25.336;2023-03-08T16:53:20;4.70;;;1.45;;
34296;SDS011;20564;42.902;25.336;2023-03-08T16:56:03;4.10;;;1.60;;
34296;SDS011;20564;42.902;25.336;2023-03-08T16:58:52;6.85;;;1.38;;
34296;SDS011;20564;42.902;25.336;2023-03-08T17:01:47;3.55;;;1.33;;
34296;SDS011;20564;42.902;25.336;2023-03-08T17:04:43;7.40;;;1.80;;
34296;SDS011;20564;42.902;25.336;2023-03-08T17:07:45;2.72;;;1.45;;
34296;SDS011;20564;42.902;25.336;2023-03-08T17:10:37;5.03;;;1.67;;
34296;SDS011;20564;42.902;25.336;2023-03-08T17:16:29;5.13;;;2.20;;
34296;SDS011;20564;42.902;25.336;2023-03-08T17:19:09;6.43;;;1.42;;
34296;SDS011;20564;42.902;25.336;2023-03-08T17:22:24;6.25;;;2.13;;
34296;SDS011;20564;42.902;25.336;2023-03-08T17:25:40;5.97;;;1.98;;
34296;SDS011;20564;42.902;25.336;2023-03-08T17:31:21;3.80;;;1.67;;
34296;SDS011;20564;42.902;25.336;2023-03-08T17:33:57;4.72;;;1.73;;
34296;SDS011;20564;42.902;25.336;2023-03-08T17:36:29;6.07;;;1.42;;
34296;SDS011;20564;42.902;25.336;2023-03-08T17:39:03;2.05;;;0.80;;
34296;SDS011;20564;42.902;25.336;2023-03-08T17:41:42;3.45;;;1.30;;
34296;SDS011;20564;42.902;25.336;2023-03-08T17:44:44;1.42;;;0.85;;